Time;durP1;ratioP1;P1;durP2;ratioP2;P2;SDS_P1;SDS_P2;PMS_P1;PMS_P2;Temp;Humidity;BMP_temperature;BMP_pressure;BME280_temperature;BME280_humidity;BME280_pressure;Samples;Min_cycle;Max_cycle;Signal;HPM_P1;HPM_P2
2022/10/07 00:00:17;;;;;;;0.52;0.50;;;21.00;64.80;;;;;;5067395;28;20040;-23
2022/10/07 00:02:43;;;;;;;0.40;0.40;;;21.00;64.80;;;;;;5065575;28;20044;-16
2022/10/07 00:05:08;;;;;;;0.30;0.30;;;21.00;64.90;;;;;;5066932;28;20024;-27
2022/10/07 00:07:34;;;;;;;0.50;0.40;;;21.00;64.90;;;;;;5065603;28;20028;-26
2022/10/07 00:10:00;;;;;;;0.30;0.30;;;21.00;64.90;;;;;;5065537;28;20021;-35
2022/10/07 00:12:25;;;;;;;0.40;0.38;;;21.00;64.80;;;;;;5064941;28;20576;-17
2022/10/07 00:14:51;;;;;;;0.73;0.40;;;21.00;64.90;;;;;;5066279;28;20046;-38
2022/10/07 00:17:16;;;;;;;0.70;0.47;;;21.00;64.80;;;;;;5066871;28;20029;-23
2022/10/07 00:19:42;;;;;;;0.32;0.32;;;21.00;64.80;;;;;;5064345;28;20112;-38
2022/10/07 00:22:07;;;;;;;1.08;0.68;;;21.00;64.80;;;;;;5063154;28;20032;-24
2022/10/07 00:24:33;;;;;;;0.93;0.32;;;20.90;64.70;;;;;;5059167;28;20043;-14
2022/10/07 00:26:59;;;;;;;0.40;0.40;;;21.00;64.70;;;;;;5068313;28;20440;-19
2022/10/07 00:29:24;;;;;;;0.50;0.50;;;20.90;64.70;;;;;;5064025;28;20090;-49
2022/10/07 00:31:50;;;;;;;0.90;0.40;;;20.90;64.70;;;;;;5067166;28;20078;-43
2022/10/07 00:34:15;;;;;;;0.50;0.47;;;20.90;64.70;;;;;;5063695;28;20029;-48
2022/10/07 00:36:42;;;;;;;0.40;0.30;;;20.90;64.60;;;;;;5065843;28;20036;-44
2022/10/07 00:39:10;;;;;;;0.30;0.30;;;20.90;64.60;;;;;;5063350;28;20126;-44
2022/10/07 00:41:40;;;;;;;0.85;0.30;;;20.90;64.60;;;;;;5066309;28;20553;-46
2022/10/07 00:44:31;;;;;;;0.50;0.32;;;20.90;64.70;;;;;;5059194;28;20503;-44
2022/10/07 00:47:25;;;;;;;0.40;0.32;;;20.90;64.70;;;;;;5062618;28;20049;-44
2022/10/07 00:49:55;;;;;;;0.40;0.40;;;20.90;64.60;;;;;;5080419;28;20042;-44
2022/10/07 00:52:23;;;;;;;0.60;0.60;;;20.90;64.60;;;;;;5062936;28;20113;-45
2022/10/07 00:54:51;;;;;;;0.30;0.30;;;20.90;64.50;;;;;;5065003;28;20040;-46
2022/10/07 00:57:20;;;;;;;0.60;0.50;;;20.90;64.60;;;;;;5063969;28;20051;-44
2022/10/07 00:59:45;;;;;;;1.45;0.40;;;20.90;65.40;;;;;;5062699;28;20048;-45
2022/10/07 01:02:11;;;;;;;0.60;0.57;;;20.90;64.50;;;;;;5064797;28;20047;-44
2022/10/07 01:04:36;;;;;;;0.32;0.32;;;20.90;64.50;;;;;;5065531;28;20041;-44
2022/10/07 01:07:02;;;;;;;0.32;0.32;;;20.90;65.50;;;;;;5050053;28;20518;-45
2022/10/07 01:09:27;;;;;;;1.05;0.50;;;20.90;64.60;;;;;;5059050;28;20049;-44
2022/10/07 01:12:00;;;;;;;0.40;0.40;;;20.90;64.70;;;;;;5046263;28;20036;-44
2022/10/07 01:14:51;;;;;;;0.50;0.50;;;20.80;65.40;;;;;;5059813;28;20044;-44
2022/10/07 01:17:32;;;;;;;0.57;0.50;;;20.90;64.60;;;;;;5064011;28;20028;-45
2022/10/07 01:20:24;;;;;;;0.30;0.30;;;20.80;64.60;;;;;;5064948;28;20063;-44
2022/10/07 01:23:07;;;;;;;0.40;0.40;;;20.80;64.60;;;;;;5062054;28;20157;-45
2022/10/07 01:25:49;;;;;;;0.57;0.40;;;20.80;64.60;;;;;;5063827;28;20094;-45
2022/10/07 01:28:30;;;;;;;0.57;0.50;;;20.80;64.70;;;;;;5078070;28;20040;-44
2022/10/07 01:30:57;;;;;;;0.50;0.40;;;20.90;64.60;;;;;;5064536;28;20041;-44
2022/10/07 01:33:26;;;;;;;1.23;0.75;;;20.80;64.70;;;;;;5057388;28;20503;-44
2022/10/07 01:35:52;;;;;;;0.40;0.30;;;20.80;64.70;;;;;;5063957;28;20511;-45
2022/10/07 01:38:18;;;;;;;0.40;0.40;;;20.80;64.70;;;;;;5046608;28;20118;-44
2022/10/07 01:40:47;;;;;;;0.82;0.55;;;20.80;64.80;;;;;;5046610;28;20101;-44
2022/10/07 01:43:13;;;;;;;0.43;0.43;;;20.80;64.70;;;;;;5046506;28;20186;-43
2022/10/07 01:45:40;;;;;;;0.88;0.35;;;20.80;65.50;;;;;;5062516;28;20049;-45
2022/10/07 01:48:05;;;;;;;0.57;0.55;;;20.80;64.80;;;;;;5046356;28;20032;-45
2022/10/07 01:50:31;;;;;;;0.20;0.20;;;20.80;64.50;;;;;;5047430;28;20105;-44
2022/10/07 01:53:11;;;;;;;0.30;0.30;;;20.80;64.50;;;;;;5061648;28;20423;-44
2022/10/07 01:55:49;;;;;;;0.75;0.50;;;20.80;64.70;;;;;;5062220;28;20076;-45
2022/10/07 01:58:23;;;;;;;0.60;0.60;;;20.80;64.80;;;;;;5047208;28;20037;-43
2022/10/07 02:01:13;;;;;;;0.50;0.50;;;20.80;64.80;;;;;;5061110;28;20048;-44
2022/10/07 02:03:53;;;;;;;0.52;0.40;;;20.80;64.80;;;;;;5048027;28;20037;-44
2022/10/07 02:07:02;;;;;;;1.05;0.50;;;20.80;64.80;;;;;;5047935;28;20175;-44
2022/10/07 02:09:39;;;;;;;0.30;0.30;;;20.80;64.80;;;;;;4964765;28;20039;-45
2022/10/07 02:12:36;;;;;;;0.43;0.40;;;20.80;64.80;;;;;;4950574;28;20561;-46
2022/10/07 02:15:07;;;;;;;1.40;0.47;;;20.80;64.80;;;;;;4959451;28;20046;-45
2022/10/07 02:17:34;;;;;;;0.30;0.30;;;20.80;64.70;;;;;;4950301;28;20061;-49
2022/10/07 02:19:59;;;;;;;0.40;0.40;;;20.80;64.70;;;;;;4969840;28;20047;-44
2022/10/07 02:22:27;;;;;;;0.60;0.50;;;20.80;64.90;;;;;;4949170;28;20038;-44
2022/10/07 02:24:54;;;;;;;0.52;0.40;;;20.80;65.50;;;;;;4962642;28;20046;-44
2022/10/07 02:27:22;;;;;;;1.30;0.40;;;20.70;64.70;;;;;;4957538;28;20120;-44
2022/10/07 02:29:48;;;;;;;0.30;0.30;;;20.80;64.80;;;;;;4949872;28;20042;-44
2022/10/07 02:32:16;;;;;;;0.60;0.52;;;20.80;64.80;;;;;;4951309;28;20043;-44
2022/10/07 02:34:42;;;;;;;0.50;0.50;;;20.80;64.80;;;;;;4950663;28;20094;-44
2022/10/07 02:37:13;;;;;;;0.30;0.30;;;20.80;64.60;;;;;;4958865;28;20707;-45
2022/10/07 02:39:39;;;;;;;0.55;0.50;;;20.70;64.60;;;;;;4961195;28;20054;-44
2022/10/07 02:42:50;;;;;;;0.52;0.50;;;20.80;64.80;;;;;;4962321;28;20043;-45
2022/10/07 02:45:21;;;;;;;0.38;0.30;;;20.70;64.70;;;;;;4969153;28;20113;-45
2022/10/07 02:47:47;;;;;;;0.40;0.40;;;20.80;64.60;;;;;;5049465;28;20051;-44
2022/10/07 02:50:15;;;;;;;0.30;0.30;;;20.70;64.70;;;;;;5060061;28;20483;-41
2022/10/07 02:52:40;;;;;;;0.32;0.30;;;20.70;64.50;;;;;;5045240;28;20628;-45
2022/10/07 02:55:07;;;;;;;0.68;0.30;;;20.70;64.60;;;;;;5048275;28;20075;-45
2022/10/07 02:57:35;;;;;;;0.65;0.65;;;20.70;64.70;;;;;;5063168;28;20052;-44
2022/10/07 03:00:00;;;;;;;1.55;0.40;;;20.70;64.70;;;;;;5079063;28;20048;-45
2022/10/07 03:02:41;;;;;;;0.73;0.40;;;20.80;64.70;;;;;;5064267;28;20453;-45
2022/10/07 03:05:07;;;;;;;0.40;0.40;;;20.70;64.60;;;;;;5030167;28;20058;-44
2022/10/07 03:07:34;;;;;;;0.30;0.20;;;20.70;64.70;;;;;;5054470;28;20438;-45
2022/10/07 03:10:00;;;;;;;0.40;0.40;;;20.80;64.60;;;;;;5047819;28;20052;-46
2022/10/07 03:12:26;;;;;;;0.30;0.30;;;20.70;64.40;;;;;;5047198;28;20041;-44
2022/10/07 03:14:52;;;;;;;0.90;0.40;;;20.70;64.50;;;;;;5051814;28;20431;-44
2022/10/07 03:17:18;;;;;;;0.32;0.30;;;20.70;64.50;;;;;;5068082;28;20513;-45
2022/10/07 03:19:43;;;;;;;0.55;0.50;;;20.70;64.60;;;;;;5062914;28;20518;-45
2022/10/07 03:22:09;;;;;;;1.52;0.40;;;20.70;64.30;;;;;;5066973;28;20481;-44
2022/10/07 03:24:34;;;;;;;0.40;0.40;;;20.70;64.60;;;;;;5066137;28;20094;-44
2022/10/07 03:27:00;;;;;;;0.63;0.60;;;20.70;64.60;;;;;;5067449;28;20403;-45
2022/10/07 03:29:25;;;;;;;0.30;0.30;;;20.70;64.50;;;;;;5062445;28;20063;-44
2022/10/07 03:31:54;;;;;;;0.40;0.30;;;20.70;64.60;;;;;;5064989;28;20047;-44
2022/10/07 03:34:19;;;;;;;0.40;0.40;;;20.70;64.50;;;;;;5064986;28;20056;-43
2022/10/07 03:36:45;;;;;;;0.30;0.30;;;20.70;64.40;;;;;;5067795;28;20118;-46
2022/10/07 03:39:11;;;;;;;0.32;0.32;;;20.60;64.50;;;;;;5065882;28;20415;-46
2022/10/07 03:41:36;;;;;;;0.55;0.40;;;20.70;64.60;;;;;;5064646;28;20055;-45
2022/10/07 03:44:02;;;;;;;0.40;0.40;;;20.70;64.50;;;;;;5066651;28;20040;-44
2022/10/07 03:46:28;;;;;;;0.50;0.50;;;20.70;64.40;;;;;;5066649;28;20114;-45
2022/10/07 03:48:53;;;;;;;0.47;0.47;;;20.70;64.40;;;;;;5061440;28;20049;-44
2022/10/07 03:51:19;;;;;;;0.40;0.40;;;20.60;65.40;;;;;;5066662;28;20414;-45
2022/10/07 03:53:44;;;;;;;0.30;0.30;;;20.60;64.50;;;;;;5066939;28;20056;-44
2022/10/07 03:56:10;;;;;;;0.55;0.43;;;20.70;64.40;;;;;;5083541;28;20040;-45
2022/10/07 03:58:35;;;;;;;0.40;0.40;;;20.70;64.30;;;;;;5063679;28;20056;-45
2022/10/07 04:01:05;;;;;;;0.20;0.20;;;20.60;64.40;;;;;;5065476;28;20056;-45
2022/10/07 04:03:31;;;;;;;0.55;0.50;;;20.60;64.40;;;;;;5065716;28;20049;-44
2022/10/07 04:06:00;;;;;;;0.30;0.30;;;20.60;64.50;;;;;;5066042;28;20036;-44
2022/10/07 04:08:27;;;;;;;0.40;0.40;;;20.60;64.30;;;;;;5066404;28;20068;-44
2022/10/07 04:10:53;;;;;;;0.47;0.30;;;20.60;64.40;;;;;;5067267;28;20060;-46
2022/10/07 04:13:18;;;;;;;0.73;0.50;;;20.60;64.30;;;;;;5065388;28;20041;-44
2022/10/07 04:15:44;;;;;;;0.40;0.40;;;20.60;65.10;;;;;;5063340;28;20051;-45
2022/10/07 04:18:09;;;;;;;0.40;0.40;;;20.60;65.10;;;;;;5066515;28;20534;-44
2022/10/07 04:20:36;;;;;;;0.60;0.40;;;20.60;64.30;;;;;;5064838;28;20105;-49
2022/10/07 04:23:02;;;;;;;0.40;0.40;;;20.60;64.40;;;;;;5059233;28;20044;-44
2022/10/07 04:25:33;;;;;;;0.40;0.40;;;20.60;64.40;;;;;;5045260;28;20045;-45
2022/10/07 04:28:00;;;;;;;0.40;0.40;;;20.60;64.30;;;;;;5043396;28;20041;-45
2022/10/07 04:30:27;;;;;;;0.30;0.30;;;20.60;64.20;;;;;;5044424;28;20048;-45
2022/10/07 04:32:52;;;;;;;0.50;0.50;;;20.60;64.20;;;;;;5045396;28;20088;-44
2022/10/07 04:35:19;;;;;;;0.40;0.40;;;20.70;64.20;;;;;;5046763;28;20499;-42
2022/10/07 04:37:47;;;;;;;0.43;0.40;;;20.60;64.10;;;;;;5045366;28;20645;-44
2022/10/07 04:40:13;;;;;;;0.40;0.40;;;20.60;64.10;;;;;;5050066;28;20123;-44
2022/10/07 04:45:22;;;;;;;0.50;0.50;;;20.60;64.20;;;;;;5064564;28;20052;-44
2022/10/07 04:47:48;;;;;;;0.35;0.30;;;20.60;64.20;;;;;;5065562;28;20419;-44
2022/10/07 04:50:14;;;;;;;0.32;0.32;;;20.60;64.20;;;;;;5066624;28;20056;-44
2022/10/07 04:52:41;;;;;;;0.57;0.57;;;20.60;64.20;;;;;;5053426;28;20725;-45
2022/10/07 04:55:07;;;;;;;0.57;0.40;;;20.60;65.00;;;;;;5040591;28;20500;-44
2022/10/07 04:57:33;;;;;;;0.20;0.20;;;20.60;64.30;;;;;;5044983;28;20053;-44
2022/10/07 04:59:58;;;;;;;0.80;0.50;;;20.50;64.00;;;;;;5057916;28;20541;-44
2022/10/07 05:02:24;;;;;;;0.40;0.40;;;20.50;64.90;;;;;;5062418;28;20493;-43
2022/10/07 05:04:49;;;;;;;0.50;0.40;;;20.50;64.20;;;;;;5066013;28;20562;-44
2022/10/07 05:07:17;;;;;;;0.40;0.40;;;20.50;64.20;;;;;;5065215;28;20443;-44
2022/10/07 05:09:42;;;;;;;0.45;0.38;;;20.50;64.20;;;;;;5057141;28;20040;-44
2022/10/07 05:12:08;;;;;;;1.70;0.50;;;20.50;64.40;;;;;;5050232;28;20175;-44
2022/10/07 05:14:34;;;;;;;1.20;0.30;;;20.50;65.10;;;;;;5039747;28;20510;-46
2022/10/07 05:16:59;;;;;;;1.21;0.52;;;20.50;66.20;;;;;;4678423;28;10000848;-44
2022/10/07 05:19:25;;;;;;;0.43;0.40;;;20.50;65.80;;;;;;5046891;28;20129;-40
2022/10/07 05:21:50;;;;;;;0.45;0.40;;;20.50;65.50;;;;;;5035613;28;20052;-44
2022/10/07 05:24:16;;;;;;;1.27;0.60;;;20.50;66.10;;;;;;5052066;28;20475;-46
2022/10/07 05:26:42;;;;;;;1.48;0.40;;;20.50;65.90;;;;;;5034672;28;20080;-46
2022/10/07 05:29:08;;;;;;;2.10;0.93;;;20.50;66.00;;;;;;5037482;28;20066;-43
2022/10/07 05:31:33;;;;;;;0.88;0.40;;;20.50;66.10;;;;;;5031729;28;20102;-46
2022/10/07 05:33:59;;;;;;;0.65;0.47;;;20.50;66.00;;;;;;5038370;28;20048;-45
2022/10/07 05:36:24;;;;;;;0.75;0.30;;;20.50;65.80;;;;;;5049804;28;20128;-42
2022/10/07 05:38:53;;;;;;;0.40;0.40;;;20.50;65.80;;;;;;5037126;28;20083;-45
2022/10/07 05:41:20;;;;;;;1.45;0.40;;;20.50;65.90;;;;;;5048356;28;20028;-47
2022/10/07 05:43:47;;;;;;;0.30;0.30;;;20.50;66.10;;;;;;5029037;28;20591;-44
2022/10/07 05:46:14;;;;;;;3.53;0.60;;;20.50;66.60;;;;;;5038263;28;20508;-44
2022/10/07 05:48:39;;;;;;;1.92;0.50;;;20.50;67.50;;;;;;5035080;28;20064;-45
2022/10/07 05:51:06;;;;;;;0.55;0.43;;;20.50;66.40;;;;;;5051858;28;20483;-46
2022/10/07 05:53:32;;;;;;;1.88;0.60;;;20.50;66.20;;;;;;5052305;28;20053;-44
2022/10/07 05:55:58;;;;;;;0.88;0.68;;;20.50;66.50;;;;;;5054143;28;20103;-44
2022/10/07 05:58:24;;;;;;;1.85;0.68;;;20.50;66.20;;;;;;5058187;28;20044;-45
2022/10/07 06:00:55;;;;;;;0.47;0.47;;;20.50;66.00;;;;;;5037283;28;20037;-46
2022/10/07 06:03:20;;;;;;;0.60;0.38;;;20.50;66.00;;;;;;5040326;28;20055;-45
2022/10/07 06:05:47;;;;;;;0.40;0.40;;;20.50;66.70;;;;;;5046776;28;20044;-46
2022/10/07 06:08:12;;;;;;;0.55;0.43;;;20.50;65.80;;;;;;5052547;28;20415;-44
2022/10/07 06:13:22;;;;;;;0.40;0.40;;;20.50;65.80;;;;;;5043402;28;20424;-45
2022/10/07 06:15:49;;;;;;;1.63;0.40;;;20.50;65.70;;;;;;5044146;28;20143;-44
2022/10/07 06:18:15;;;;;;;0.70;0.70;;;20.50;65.70;;;;;;5038211;28;20470;-45
2022/10/07 06:20:40;;;;;;;0.68;0.68;;;20.50;65.60;;;;;;5031730;28;20045;-44
2022/10/07 06:23:06;;;;;;;3.17;0.70;;;20.50;65.50;;;;;;5024153;28;20090;-46
2022/10/07 06:25:32;;;;;;;0.90;0.90;;;20.50;65.40;;;;;;5033180;28;20040;-46
2022/10/07 06:27:58;;;;;;;1.20;0.60;;;20.50;65.40;;;;;;5033550;28;20075;-46
2022/10/07 06:30:24;;;;;;;1.05;0.40;;;20.50;65.40;;;;;;5024707;28;20042;-34
2022/10/07 06:32:50;;;;;;;3.33;0.57;;;20.50;65.40;;;;;;5041390;28;20063;-43
2022/10/07 06:35:15;;;;;;;2.17;0.50;;;20.50;65.30;;;;;;5044822;28;20048;-53
2022/10/07 06:37:41;;;;;;;1.23;0.75;;;20.40;65.20;;;;;;5041466;28;20082;-43
2022/10/07 06:40:07;;;;;;;2.25;0.63;;;20.50;65.30;;;;;;5044922;28;20545;-46
2022/10/07 06:42:32;;;;;;;0.75;0.40;;;20.40;65.20;;;;;;5043063;28;20052;-42
2022/10/07 06:44:58;;;;;;;1.02;0.68;;;20.40;65.10;;;;;;5044531;28;21432;-45
2022/10/07 06:47:24;;;;;;;0.50;0.50;;;20.50;65.10;;;;;;5042532;28;20060;-43
2022/10/07 06:49:49;;;;;;;1.63;0.47;;;20.40;65.10;;;;;;5045216;28;20062;-46
2022/10/07 06:52:15;;;;;;;0.55;0.40;;;20.40;65.10;;;;;;5046245;28;20574;-51
2022/10/07 06:54:41;;;;;;;1.00;0.50;;;20.40;65.10;;;;;;5042632;28;20071;-54
2022/10/07 06:57:06;;;;;;;1.83;0.50;;;20.50;65.10;;;;;;5044258;28;20071;-50
2022/10/07 06:59:32;;;;;;;0.85;0.65;;;20.40;65.00;;;;;;5045019;28;20511;-54
2022/10/07 07:01:58;;;;;;;1.05;0.47;;;20.50;64.90;;;;;;5070734;28;20409;-44
2022/10/07 07:04:24;;;;;;;0.88;0.40;;;20.50;64.90;;;;;;5071926;28;20111;-51
2022/10/07 07:06:49;;;;;;;0.43;0.43;;;20.50;64.80;;;;;;5068978;28;20052;-48
2022/10/07 07:09:15;;;;;;;3.92;0.60;;;20.50;64.60;;;;;;5065050;28;20113;-48
2022/10/07 07:11:42;;;;;;;0.45;0.45;;;20.50;64.60;;;;;;5070826;28;20043;-61
2022/10/07 07:14:08;;;;;;;1.17;0.50;;;20.50;64.60;;;;;;5067791;28;20041;-49
2022/10/07 07:16:36;;;;;;;1.88;0.50;;;20.50;64.50;;;;;;5066521;28;20527;-56
2022/10/07 07:19:07;;;;;;;1.40;0.52;;;20.50;64.70;;;;;;5060857;28;20045;-50
2022/10/07 07:21:34;;;;;;;1.55;0.30;;;20.50;64.40;;;;;;5065296;28;20048;-55
2022/10/07 07:24:00;;;;;;;0.57;0.30;;;20.50;64.40;;;;;;5066752;28;20391;-60
2022/10/07 07:26:27;;;;;;;1.58;0.63;;;20.50;64.50;;;;;;5070226;28;20049;-55
2022/10/07 07:28:53;;;;;;;0.60;0.55;;;20.40;64.50;;;;;;5058528;28;20048;-53
2022/10/07 07:31:19;;;;;;;3.10;0.70;;;20.50;64.60;;;;;;5065975;28;20052;-45
2022/10/07 07:33:51;;;;;;;0.63;0.63;;;20.50;64.40;;;;;;5060756;28;20059;-44
2022/10/07 07:36:17;;;;;;;0.70;0.70;;;20.50;64.40;;;;;;5067191;28;20114;-57
2022/10/07 07:38:43;;;;;;;6.07;0.60;;;20.50;64.40;;;;;;5064165;28;20060;-59
2022/10/07 07:41:09;;;;;;;0.55;0.50;;;20.50;64.40;;;;;;5065378;28;20098;-60
2022/10/07 07:43:35;;;;;;;0.60;0.60;;;20.50;64.30;;;;;;5054049;28;20045;-56
2022/10/07 07:46:01;;;;;;;0.50;0.40;;;20.40;64.50;;;;;;5042710;28;20041;-59
2022/10/07 07:48:26;;;;;;;0.60;0.40;;;20.50;64.30;;;;;;5060174;28;20517;-53
2022/10/07 07:50:53;;;;;;;1.15;0.47;;;20.50;64.30;;;;;;5047473;28;20049;-57
2022/10/07 07:53:18;;;;;;;0.40;0.40;;;20.50;64.20;;;;;;5056027;28;20055;-59
2022/10/07 07:55:56;;;;;;;0.60;0.60;;;20.50;64.20;;;;;;5057217;28;20128;-54
2022/10/07 07:58:23;;;;;;;0.82;0.50;;;20.50;64.20;;;;;;5070445;28;20041;-63
2022/10/07 08:01:04;;;;;;;0.60;0.43;;;20.50;64.30;;;;;;5042903;28;20059;-61
2022/10/07 08:03:31;;;;;;;1.35;0.60;;;20.50;64.30;;;;;;5051586;28;20424;-58
2022/10/07 08:06:00;;;;;;;1.70;0.60;;;20.50;64.30;;;;;;5043495;28;20049;-61
2022/10/07 08:08:26;;;;;;;0.50;0.50;;;20.50;64.30;;;;;;5045878;28;20045;-53
2022/10/07 08:10:51;;;;;;;0.55;0.55;;;20.60;64.30;;;;;;5041323;28;20067;-53
2022/10/07 08:13:17;;;;;;;0.50;0.50;;;20.60;64.20;;;;;;5051078;28;20120;-53
2022/10/07 08:15:43;;;;;;;4.47;0.60;;;20.60;64.20;;;;;;5061403;28;20048;-60
2022/10/07 08:18:08;;;;;;;1.15;0.50;;;20.60;64.20;;;;;;5045702;28;20044;-59
2022/10/07 08:20:35;;;;;;;1.40;0.70;;;20.60;64.00;;;;;;5062930;28;20576;-57
2022/10/07 08:23:02;;;;;;;1.15;0.43;;;20.60;64.10;;;;;;5063613;28;20040;-61
2022/10/07 08:25:28;;;;;;;0.40;0.40;;;20.60;64.20;;;;;;5056601;28;20521;-50
2022/10/07 08:27:54;;;;;;;0.40;0.40;;;20.70;64.10;;;;;;5045480;28;20048;-57
2022/10/07 08:30:19;;;;;;;0.65;0.50;;;20.60;64.10;;;;;;5049029;28;20129;-58
2022/10/07 08:32:45;;;;;;;0.50;0.43;;;20.60;64.00;;;;;;5044327;28;20087;-60
2022/10/07 08:35:10;;;;;;;0.50;0.50;;;20.60;64.10;;;;;;5050338;28;20423;-61
2022/10/07 08:37:36;;;;;;;0.30;0.30;;;20.70;64.10;;;;;;5060968;28;20143;-61
2022/10/07 08:40:01;;;;;;;0.65;0.52;;;20.70;64.10;;;;;;5042636;28;20056;-54
2022/10/07 08:42:34;;;;;;;0.60;0.60;;;20.70;64.10;;;;;;5040205;28;20040;-59
2022/10/07 08:44:59;;;;;;;0.82;0.50;;;20.70;64.60;;;;;;5056345;28;20127;-56
2022/10/07 08:47:34;;;;;;;0.30;0.30;;;20.70;64.20;;;;;;5048898;28;20128;-47
2022/10/07 08:50:11;;;;;;;0.50;0.40;;;20.70;64.20;;;;;;5058266;28;20052;-47
2022/10/07 08:52:36;;;;;;;7.80;0.50;;;20.70;64.00;;;;;;5050670;28;20481;-60
2022/10/07 08:55:03;;;;;;;0.40;0.38;;;20.80;63.80;;;;;;5034228;28;20528;-53
2022/10/07 08:57:45;;;;;;;0.50;0.38;;;20.70;63.90;;;;;;5036430;28;20069;-61
2022/10/07 09:00:11;;;;;;;2.03;0.35;;;20.70;64.30;;;;;;5077213;28;20041;-59
2022/10/07 09:02:44;;;;;;;1.48;0.30;;;20.70;64.20;;;;;;5061614;28;20412;-62
2022/10/07 09:05:23;;;;;;;0.55;0.55;;;20.70;64.20;;;;;;5081308;28;20089;-58
2022/10/07 09:08:00;;;;;;;0.60;0.40;;;20.80;63.80;;;;;;5057655;28;20049;-61
2022/10/07 09:10:33;;;;;;;0.50;0.38;;;20.80;63.70;;;;;;5059063;28;20056;-48
2022/10/07 09:13:01;;;;;;;0.97;0.30;;;20.70;63.80;;;;;;5063427;28;20143;-61
2022/10/07 09:15:33;;;;;;;0.40;0.40;;;20.70;64.10;;;;;;5063769;28;20579;-58
2022/10/07 09:18:02;;;;;;;0.70;0.60;;;20.60;64.10;;;;;;5062250;28;20060;-59
2022/10/07 09:20:32;;;;;;;0.68;0.45;;;20.60;63.60;;;;;;5064205;28;20041;-60
2022/10/07 09:22:57;;;;;;;0.47;0.47;;;20.60;64.10;;;;;;5046132;28;20045;-61
2022/10/07 09:25:27;;;;;;;0.40;0.40;;;20.50;63.60;;;;;;5062709;28;20051;-60
2022/10/07 09:27:53;;;;;;;0.50;0.50;;;20.50;64.10;;;;;;5068241;28;20156;-56
2022/10/07 09:30:19;;;;;;;0.47;0.30;;;20.60;63.80;;;;;;5067934;28;20541;-59
2022/10/07 09:59:42;;;;;;;0.60;0.60;;;21.10;63.60;;;;;;2603613;28;20055;-61
2022/10/07 10:02:14;;;;;;;0.38;0.30;;;21.10;62.60;;;;;;5064390;28;20494;-59
2022/10/07 10:04:55;;;;;;;0.93;0.70;;;21.10;62.70;;;;;;5063902;28;20044;-62
2022/10/07 10:07:24;;;;;;;1.08;0.50;;;21.10;62.80;;;;;;5062202;28;20573;-52
2022/10/07 10:09:53;;;;;;;0.47;0.47;;;21.10;63.00;;;;;;5060137;28;20057;-61
2022/10/07 10:12:19;;;;;;;0.60;0.60;;;21.10;63.10;;;;;;5056886;28;20060;-45
2022/10/07 10:14:49;;;;;;;0.40;0.40;;;21.00;63.10;;;;;;5073755;28;20032;-57
2022/10/07 10:17:26;;;;;;;0.40;0.40;;;21.10;63.00;;;;;;5059631;28;20053;-55
2022/10/07 10:19:52;;;;;;;0.57;0.55;;;21.10;63.10;;;;;;5062344;28;20044;-58
2022/10/07 10:22:28;;;;;;;0.30;0.30;;;21.10;63.30;;;;;;5060643;28;20037;-62
2022/10/07 10:27:45;;;;;;;;;;;21.00;64.00;;;;;;5052921;28;20549;-53
2022/10/07 10:30:15;;;;;;;0.22;0.22;;;21.10;63.20;;;;;;5058741;28;19916;-52
2022/10/07 10:32:56;;;;;;;0.68;0.47;;;21.10;63.10;;;;;;5035038;28;20044;-51
2022/10/07 10:35:22;;;;;;;0.30;0.30;;;21.10;63.00;;;;;;5054026;28;20048;-59
2022/10/07 10:37:56;;;;;;;0.68;0.50;;;21.10;63.00;;;;;;5055737;28;20632;-56
2022/10/07 10:40:25;;;;;;;0.75;0.45;;;21.10;63.00;;;;;;5051509;28;20108;-50
2022/10/07 10:43:05;;;;;;;1.23;0.30;;;21.10;62.90;;;;;;5050439;28;20098;-56
2022/10/07 10:45:53;;;;;;;0.82;0.50;;;21.10;62.90;;;;;;5065686;28;20541;-51
2022/10/07 10:48:32;;;;;;;1.02;0.63;;;21.10;62.70;;;;;;5065370;28;20052;-54
2022/10/07 10:51:24;;;;;;;0.73;0.60;;;21.20;62.60;;;;;;5056797;28;20182;-58
2022/10/07 10:54:17;;;;;;;0.93;0.52;;;21.20;62.60;;;;;;5055080;28;20040;-63
2022/10/07 10:57:03;;;;;;;0.70;0.60;;;21.10;62.30;;;;;;5052262;28;20653;-62
2022/10/07 10:59:54;;;;;;;0.93;0.68;;;21.20;62.30;;;;;;5052852;28;20059;-56
2022/10/07 11:02:37;;;;;;;2.70;0.93;;;21.10;62.20;;;;;;5053990;28;20515;-61
2022/10/07 11:05:16;;;;;;;1.48;0.65;;;21.20;62.10;;;;;;5056972;28;20040;-61
2022/10/07 11:07:49;;;;;;;1.35;0.63;;;21.20;62.20;;;;;;5057345;28;20048;-63
2022/10/07 11:10:39;;;;;;;0.80;0.60;;;21.20;62.10;;;;;;5060823;28;20089;-60
2022/10/07 11:13:38;;;;;;;0.85;0.60;;;21.20;62.20;;;;;;5046250;28;20082;-49
2022/10/07 11:16:05;;;;;;;0.98;0.70;;;21.20;62.20;;;;;;5025557;28;20431;-57
2022/10/07 11:18:33;;;;;;;0.52;0.40;;;21.20;62.20;;;;;;5053130;28;20071;-52
2022/10/07 11:20:59;;;;;;;1.50;0.80;;;21.20;62.10;;;;;;4705825;28;9999729;-60
2022/10/07 11:23:34;;;;;;;1.98;0.77;;;21.30;62.20;;;;;;5043050;28;20068;-58
2022/10/07 11:26:24;;;;;;;0.95;0.47;;;21.30;62.30;;;;;;5064247;28;20086;-55
2022/10/07 11:28:50;;;;;;;1.50;0.80;;;21.30;62.20;;;;;;5054451;28;20139;-55
2022/10/07 11:31:32;;;;;;;1.52;0.60;;;21.30;62.20;;;;;;5058797;28;20116;-53
2022/10/07 11:34:06;;;;;;;0.98;0.40;;;21.30;62.20;;;;;;5058963;28;20571;-61
2022/10/07 11:36:41;;;;;;;1.33;0.70;;;21.30;62.30;;;;;;5065086;28;20447;-51
2022/10/07 11:39:07;;;;;;;1.50;0.40;;;21.30;62.40;;;;;;5076589;28;20048;-57
2022/10/07 11:41:34;;;;;;;2.28;0.50;;;21.30;62.50;;;;;;5067695;28;20052;-51
2022/10/07 11:44:07;;;;;;;1.48;0.50;;;21.30;62.60;;;;;;5079295;28;20051;-48
2022/10/07 11:46:39;;;;;;;1.13;0.60;;;21.30;62.50;;;;;;5045878;28;20043;-50
2022/10/07 11:49:10;;;;;;;0.80;0.55;;;21.30;62.70;;;;;;5027476;28;20047;-51
2022/10/07 11:51:40;;;;;;;1.45;0.60;;;21.30;62.80;;;;;;5053671;28;20048;-54
2022/10/07 11:54:06;;;;;;;1.00;0.40;;;21.40;62.80;;;;;;5041775;28;20108;-55
2022/10/07 11:56:37;;;;;;;0.60;0.60;;;21.40;62.80;;;;;;5051710;28;20541;-54
2022/10/07 11:59:04;;;;;;;0.45;0.30;;;21.40;62.70;;;;;;5047006;28;20097;-55
2022/10/07 12:01:45;;;;;;;0.60;0.50;;;21.40;62.70;;;;;;5061290;28;20051;-42
2022/10/07 12:04:29;;;;;;;1.00;0.85;;;21.40;62.90;;;;;;5039836;28;20118;-46
2022/10/07 12:07:35;;;;;;;0.45;0.30;;;21.60;62.60;;;;;;5044924;28;20043;-57
2022/10/07 12:10:01;;;;;;;0.32;0.32;;;21.60;62.40;;;;;;5041710;28;20116;-55
2022/10/07 12:12:45;;;;;;;2.15;0.50;;;21.60;62.30;;;;;;5045267;28;20116;-58
2022/10/07 12:15:41;;;;;;;1.25;0.52;;;21.60;62.30;;;;;;5050267;28;20073;-60
2022/10/07 12:18:06;;;;;;;0.93;0.70;;;21.60;62.40;;;;;;5044572;28;20037;-50
2022/10/07 12:20:41;;;;;;;0.77;0.40;;;21.60;62.30;;;;;;5050404;28;20408;-59
2022/10/07 12:23:16;;;;;;;1.17;0.32;;;21.60;62.30;;;;;;5038338;28;20052;-50
2022/10/07 12:25:45;;;;;;;0.50;0.30;;;21.60;62.40;;;;;;5048807;28;20499;-60
2022/10/07 12:28:20;;;;;;;1.60;0.50;;;21.60;62.40;;;;;;5050824;28;20093;-47
2022/10/07 12:30:50;;;;;;;0.45;0.35;;;21.60;62.30;;;;;;5039410;28;20058;-40
2022/10/07 12:33:28;;;;;;;0.77;0.38;;;21.80;61.90;;;;;;5055441;28;20060;-46
2022/10/07 12:35:54;;;;;;;1.80;0.50;;;21.80;61.70;;;;;;5051118;28;20072;-42
2022/10/07 12:38:25;;;;;;;0.70;0.47;;;21.80;61.50;;;;;;5027342;28;20119;-42
2022/10/07 12:41:24;;;;;;;0.80;0.50;;;21.80;61.60;;;;;;5032390;28;20048;-41
2022/10/07 12:44:05;;;;;;;0.55;0.35;;;21.80;61.70;;;;;;5060154;28;20020;-42
2022/10/07 12:46:46;;;;;;;1.65;0.50;;;21.80;61.60;;;;;;5059501;28;20024;-42
2022/10/07 12:49:25;;;;;;;1.42;0.57;;;21.80;61.70;;;;;;5060869;28;20032;-41
2022/10/07 12:51:52;;;;;;;0.75;0.55;;;21.90;61.70;;;;;;5062975;28;20048;-41
2022/10/07 12:54:19;;;;;;;0.60;0.47;;;21.90;61.60;;;;;;5060368;28;20122;-42
2022/10/07 12:56:45;;;;;;;1.00;0.50;;;21.90;61.50;;;;;;5060836;28;20051;-40
2022/10/07 12:59:49;;;;;;;0.80;0.40;;;21.90;61.30;;;;;;5060439;28;20112;-46
2022/10/07 13:02:30;;;;;;;0.30;0.30;;;21.90;61.30;;;;;;5036026;28;20568;-43
2022/10/07 13:05:30;;;;;;;0.50;0.30;;;21.90;61.40;;;;;;5062438;28;20040;-41
2022/10/07 13:07:56;;;;;;;0.73;0.40;;;21.90;61.40;;;;;;5027396;28;20507;-40
2022/10/07 13:10:50;;;;;;;0.52;0.30;;;21.90;61.40;;;;;;5021318;28;20049;-43
2022/10/07 13:13:27;;;;;;;;;;;21.90;61.50;;;;;;5001394;28;20038;-41
2022/10/07 13:15:57;;;;;;;0.52;0.30;;;21.90;61.50;;;;;;4990377;28;20343;-41
2022/10/07 13:18:43;;;;;;;0.38;0.30;;;21.90;61.50;;;;;;4999727;28;20038;-41
2022/10/07 13:21:38;;;;;;;0.68;0.50;;;21.90;61.50;;;;;;5032008;28;20053;-42
2022/10/07 13:24:04;;;;;;;;;;;22.00;61.30;;;;;;5006543;28;20049;-42
2022/10/07 13:26:29;;;;;;;0.55;0.35;;;21.90;61.50;;;;;;5026782;28;19919;-43
2022/10/07 13:28:56;;;;;;;0.60;0.45;;;22.00;61.70;;;;;;5015195;28;20124;-42
2022/10/07 13:31:29;;;;;;;0.40;0.40;;;22.00;61.60;;;;;;5012708;28;20038;-47
2022/10/07 13:33:56;;;;;;;0.32;0.32;;;22.00;61.60;;;;;;5016402;28;20046;-42
2022/10/07 13:36:29;;;;;;;1.08;0.40;;;22.00;61.60;;;;;;5017899;28;20104;-43
2022/10/07 13:39:14;;;;;;;0.22;0.20;;;22.00;61.60;;;;;;5009565;28;20054;-41